Time;durP1;ratioP1;P1;durP2;ratioP2;P2;SDS_P1;SDS_P2;PMS_P1;PMS_P2;Temp;Humidity;BMP_temperature;BMP_pressure;BME280_temperature;BME280_humidity;BME280_pressure;Samples;Min_cycle;Max_cycle;Signal;HPM_P1;HPM_P2
2021/08/20 00:01:32;;;;;;;5.70;5.03;;;;;;;20.29;67.84;97264.22;5025736;28;20476;-77
2021/08/20 00:03:58;;;;;;;6.10;4.30;;;;;;;20.27;67.95;97268.22;5033158;28;20437;-77
2021/08/20 00:06:23;;;;;;;5.13;4.05;;;;;;;20.27;67.91;97265.59;5033271;28;20041;-77
2021/08/20 00:08:49;;;;;;;6.22;4.55;;;;;;;20.24;67.70;97263.56;5000899;28;20025;-77
2021/08/20 00:11:14;;;;;;;5.68;4.50;;;;;;;20.21;68.19;97259.66;5029683;28;20055;-77
2021/08/20 00:13:40;;;;;;;7.05;4.78;;;;;;;20.23;68.12;97268.06;5053778;28;20036;-77
2021/08/20 00:16:06;;;;;;;6.03;4.97;;;;;;;20.23;67.87;97265.41;5037506;28;20107;-77
2021/08/20 00:18:35;;;;;;;4.95;4.13;;;;;;;20.21;68.21;97272.88;5021062;28;20116;-77
2021/08/20 00:21:00;;;;;;;4.85;4.30;;;;;;;20.19;68.15;97265.25;5036818;28;20029;-77
2021/08/20 00:23:28;;;;;;;6.80;4.18;;;;;;;20.15;68.19;97266.16;5051193;28;20396;-77
2021/08/20 00:25:54;;;;;;;6.10;4.93;;;;;;;20.16;68.30;97265.09;5018558;28;20029;-77
2021/08/20 00:28:19;;;;;;;4.53;3.97;;;;;;;20.17;68.18;97262.13;5051914;28;20336;-77
2021/08/20 00:30:47;;;;;;;5.78;4.50;;;;;;;20.15;68.14;97266.16;5018080;28;20033;-77
2021/08/20 00:33:12;;;;;;;5.55;4.32;;;;;;;20.17;68.18;97269.31;5034626;28;20123;-77
2021/08/20 00:35:37;;;;;;;6.00;4.30;;;;;;;20.13;67.98;97266.47;5034202;28;20119;-77
2021/08/20 00:38:03;;;;;;;5.50;4.68;;;;;;;20.15;68.26;97264.31;5034606;28;20033;-77
2021/08/20 00:40:28;;;;;;;6.00;4.65;;;;;;;20.12;68.04;97259.63;5017683;28;20024;-77
2021/08/20 00:42:53;;;;;;;5.15;4.65;;;;;;;20.13;68.21;97258.53;5017646;28;20032;-77
2021/08/20 00:45:19;;;;;;;5.32;4.35;;;;;;;20.13;68.16;97261.16;5034413;28;20041;-77
2021/08/20 00:47:44;;;;;;;5.50;4.93;;;;;;;20.14;68.10;97262.75;5017647;28;20368;-77
2021/08/20 00:50:10;;;;;;;5.00;4.30;;;;;;;20.09;68.38;97267.38;5050147;28;20801;-77
2021/08/20 00:52:35;;;;;;;5.70;5.03;;;;;;;20.10;68.08;97263.66;5018919;28;20058;-77
2021/08/20 00:55:04;;;;;;;6.10;5.05;;;;;;;20.10;68.23;97261.81;5034231;28;20364;-77
2021/08/20 00:57:29;;;;;;;6.97;5.50;;;;;;;20.12;68.44;97264.91;5034190;28;20146;-77
2021/08/20 00:59:54;;;;;;;6.32;4.43;;;;;;;20.11;68.19;97258.06;5033313;28;20047;-77
2021/08/20 01:02:20;;;;;;;5.22;4.53;;;;;;;20.09;68.27;97259.47;5036513;28;20033;-77
2021/08/20 01:04:45;;;;;;;5.25;4.22;;;;;;;20.06;68.30;97252.91;5019876;28;20036;-77
2021/08/20 01:07:10;;;;;;;5.30;4.55;;;;;;;20.06;68.37;97254.78;5036845;28;20037;-77
2021/08/20 01:09:37;;;;;;;5.78;4.70;;;;;;;20.10;68.28;97263.66;5036656;28;20037;-77
2021/08/20 01:12:03;;;;;;;6.63;5.32;;;;;;;20.11;68.20;97259.94;5036117;28;20071;-77
2021/08/20 01:14:38;;;;;;;4.95;4.40;;;;;;;19.90;68.54;97257.03;5019723;28;20170;-77
2021/08/20 01:17:04;;;;;;;;;;;;;;;19.74;69.08;97260.06;5020003;28;20073;-77
2021/08/20 01:19:31;;;;;;;5.00;4.50;;;;;;;20.01;68.39;97260.97;5036368;28;19963;-78
2021/08/20 01:21:56;;;;;;;5.68;4.63;;;;;;;20.06;68.25;97249.50;5002837;28;20115;-77
2021/08/20 01:24:22;;;;;;;5.82;4.60;;;;;;;20.05;68.10;97258.50;5018705;28;20535;-77
2021/08/20 01:26:50;;;;;;;6.88;5.15;;;;;;;19.98;68.54;97257.06;5036122;28;20025;-78
2021/08/20 01:29:17;;;;;;;6.45;4.63;;;;;;;20.04;68.04;97256.94;5020366;28;20490;-78
2021/08/20 01:31:44;;;;;;;5.80;4.70;;;;;;;20.02;68.25;97250.09;5018711;28;20033;-77
2021/08/20 01:34:10;;;;;;;6.72;4.80;;;;;;;20.04;68.05;97254.31;5019833;28;20037;-77
2021/08/20 01:36:35;;;;;;;6.28;4.60;;;;;;;20.07;67.96;97257.13;5036130;28;20039;-77
2021/08/20 01:39:00;;;;;;;6.65;5.20;;;;;;;20.08;68.01;97257.88;5019088;28;20111;-77
2021/08/20 01:41:27;;;;;;;6.05;5.45;;;;;;;20.07;67.82;97261.63;5035192;28;20032;-77
2021/08/20 01:43:53;;;;;;;6.28;5.03;;;;;;;20.05;68.10;97258.50;5019023;28;20037;-77
2021/08/20 01:46:19;;;;;;;6.22;5.55;;;;;;;20.03;67.86;97256.16;5019751;28;20430;-78
2021/08/20 01:48:49;;;;;;;5.53;4.90;;;;;;;20.00;67.95;97257.56;5036632;28;20091;-78
2021/08/20 01:51:21;;;;;;;6.22;4.82;;;;;;;20.03;67.76;97248.22;5034070;28;20535;-77
2021/08/20 01:53:47;;;;;;;6.03;5.43;;;;;;;20.07;67.91;97251.06;5036119;28;20072;-77
2021/08/20 01:56:20;;;;;;;7.05;5.10;;;;;;;19.93;68.07;97248.47;5035607;28;20036;-77
2021/08/20 01:58:46;;;;;;;7.10;4.80;;;;;;;19.98;67.89;97251.78;5036245;28;20067;-77
2021/08/20 02:01:11;;;;;;;6.38;5.20;;;;;;;20.00;67.78;97248.84;5018548;28;20456;-77
2021/08/20 02:03:37;;;;;;;6.82;5.50;;;;;;;20.00;67.69;97256.78;5035009;28;20380;-77
2021/08/20 02:06:03;;;;;;;6.78;5.28;;;;;;;19.99;67.87;97261.25;5035417;28;20029;-77
2021/08/20 02:08:28;;;;;;;7.32;5.60;;;;;;;19.98;67.89;97264.22;5003421;28;20029;-77
2021/08/20 02:10:55;;;;;;;7.57;5.80;;;;;;;19.92;68.13;97266.22;5017644;28;20123;-77
2021/08/20 02:13:21;;;;;;;6.50;5.72;;;;;;;19.93;67.94;97266.97;5051563;28;20029;-77
2021/08/20 02:15:47;;;;;;;5.82;5.20;;;;;;;19.93;68.15;97265.13;5035361;28;20029;-77
2021/08/20 02:18:12;;;;;;;6.10;5.03;;;;;;;19.89;68.18;97264.16;5052657;28;20039;-77
2021/08/20 02:20:40;;;;;;;7.85;5.68;;;;;;;19.78;68.07;97262.88;5002251;28;20029;-77
2021/08/20 02:23:07;;;;;;;5.25;4.75;;;;;;;19.88;67.94;97270.53;5035077;28;20035;-77
2021/08/20 02:25:32;;;;;;;8.52;5.35;;;;;;;19.90;68.17;97273.66;5035235;28;20037;-77
2021/08/20 02:27:58;;;;;;;6.22;5.45;;;;;;;19.90;68.04;97278.94;5018027;28;20211;-77
2021/08/20 02:30:23;;;;;;;5.40;4.82;;;;;;;19.88;68.22;97270.53;5034958;28;20060;-77
2021/08/20 02:32:49;;;;;;;5.00;4.50;;;;;;;19.85;68.52;97271.16;5035783;28;20064;-77
2021/08/20 02:35:17;;;;;;;6.22;5.57;;;;;;;19.77;68.53;97271.88;5017623;28;20060;-77
2021/08/20 02:37:43;;;;;;;8.05;5.88;;;;;;;19.85;68.26;97268.50;5018466;28;20477;-77
2021/08/20 02:40:08;;;;;;;6.25;5.38;;;;;;;19.87;68.47;97271.63;5034208;28;20091;-77
2021/08/20 02:42:34;;;;;;;5.57;5.07;;;;;;;19.90;68.31;97273.66;5051286;28;20059;-77
2021/08/20 02:44:59;;;;;;;5.75;5.15;;;;;;;19.87;68.62;97268.19;5035190;28;20086;-77
2021/08/20 02:47:24;;;;;;;7.68;5.85;;;;;;;19.88;68.44;97265.25;5018054;28;20025;-77
2021/08/20 02:49:50;;;;;;;5.82;5.22;;;;;;;19.90;68.46;97267.59;5018283;28;20033;-77
2021/08/20 02:52:15;;;;;;;6.72;5.32;;;;;;;19.87;68.53;97268.97;5049292;28;20040;-77
2021/08/20 02:54:40;;;;;;;6.25;5.65;;;;;;;19.85;68.43;97273.78;5031575;28;20071;-77
2021/08/20 02:57:06;;;;;;;7.20;5.55;;;;;;;19.87;68.62;97274.25;5031031;28;20033;-77
2021/08/20 02:59:31;;;;;;;7.53;5.60;;;;;;;19.85;68.66;97271.16;4998785;28;20123;-77
2021/08/20 03:01:58;;;;;;;7.93;6.18;;;;;;;19.81;68.62;97270.19;5000214;28;20048;-77
2021/08/20 03:04:24;;;;;;;6.13;5.53;;;;;;;19.82;68.49;97275.16;5011540;28;20045;-77
2021/08/20 03:06:50;;;;;;;6.15;5.28;;;;;;;19.86;68.22;97271.91;4980334;28;20088;-77
2021/08/20 03:09:17;;;;;;;8.80;6.45;;;;;;;19.85;68.47;97270.38;5014634;28;20041;-77
2021/08/20 03:11:42;;;;;;;7.40;5.80;;;;;;;19.86;68.50;97271.91;4998740;28;20033;-77
2021/08/20 03:14:08;;;;;;;6.90;5.85;;;;;;;19.88;68.33;97269.75;4982232;28;20029;-78
2021/08/20 03:16:33;;;;;;;6.53;5.68;;;;;;;19.84;68.73;97269.56;5014534;28;20029;-77
2021/08/20 03:18:59;;;;;;;6.18;5.13;;;;;;;19.83;68.51;97273.31;5014280;28;20044;-77
2021/08/20 03:21:24;;;;;;;7.43;5.78;;;;;;;19.80;68.44;97269.41;4982598;28;20037;-77
2021/08/20 03:23:49;;;;;;;6.45;5.43;;;;;;;19.77;68.68;97266.59;5014420;28;20029;-77
2021/08/20 03:26:15;;;;;;;6.05;5.28;;;;;;;19.75;68.60;97264.25;5020359;28;20033;-77
2021/08/20 03:28:40;;;;;;;6.20;5.60;;;;;;;19.76;68.82;97265.03;5051413;28;20029;-77
2021/08/20 03:31:05;;;;;;;7.03;5.95;;;;;;;19.75;68.37;97266.09;5050317;28;20352;-78
2021/08/20 03:33:31;;;;;;;7.65;6.03;;;;;;;19.74;68.68;97267.97;5051083;28;20387;-77
2021/08/20 03:35:56;;;;;;;7.40;5.90;;;;;;;19.72;68.77;97261.38;5051155;28;20037;-77
2021/08/20 03:38:22;;;;;;;10.65;6.13;;;;;;;19.69;68.61;97262.78;5017741;28;20068;-77
2021/08/20 03:40:49;;;;;;;7.43;5.80;;;;;;;19.69;68.54;97262.00;5050763;28;20037;-77
2021/08/20 03:43:14;;;;;;;6.28;5.22;;;;;;;19.67;68.73;97274.72;5051146;28;20454;-77
2021/08/20 03:45:40;;;;;;;9.18;6.60;;;;;;;19.61;68.71;97266.91;5051066;28;20055;-77
2021/08/20 03:48:05;;;;;;;8.20;6.30;;;;;;;19.55;68.81;97268.13;5019394;28;20444;-77
2021/08/20 03:50:33;;;;;;;7.18;6.20;;;;;;;19.50;68.85;97270.91;5055524;28;20293;-77
2021/08/20 03:52:58;;;;;;;7.88;6.32;;;;;;;19.54;69.07;97263.94;5044401;28;20030;-77
2021/08/20 03:55:23;;;;;;;8.00;6.28;;;;;;;19.54;68.84;97276.34;5037908;28;20044;-77
2021/08/20 03:57:52;;;;;;;6.43;5.82;;;;;;;19.40;69.09;97257.94;5021556;28;20554;-77
2021/08/20 04:00:18;;;;;;;6.82;5.75;;;;;;;19.51;68.67;97272.44;5005144;28;20306;-77
2021/08/20 04:02:43;;;;;;;6.50;5.80;;;;;;;19.48;69.13;97270.41;5021038;28;20055;-77
2021/08/20 04:05:09;;;;;;;6.95;5.80;;;;;;;19.45;69.05;97276.28;5021162;28;20033;-77
2021/08/20 04:07:34;;;;;;;7.78;6.40;;;;;;;19.32;69.13;97248.84;5037941;28;20044;-77
2021/08/20 04:10:00;;;;;;;7.47;5.93;;;;;;;19.39;69.20;97270.34;5020426;28;20036;-77
2021/08/20 04:12:25;;;;;;;8.82;6.82;;;;;;;19.36;69.14;97272.78;5018887;28;20128;-77
2021/08/20 04:14:51;;;;;;;7.57;5.72;;;;;;;19.32;69.29;97274.47;5055447;28;20118;-77
2021/08/20 04:17:16;;;;;;;7.72;5.80;;;;;;;19.32;69.50;97282.41;5042366;28;20345;-77
2021/08/20 04:19:41;;;;;;;8.07;6.55;;;;;;;19.30;69.36;97272.13;5053955;28;20037;-77
2021/08/20 04:22:07;;;;;;;7.85;6.82;;;;;;;19.26;69.25;97271.16;5027449;28;20032;-77
2021/08/20 04:24:32;;;;;;;8.60;6.72;;;;;;;19.24;69.23;97278.59;5021125;28;20032;-77
2021/08/20 04:26:58;;;;;;;10.23;6.75;;;;;;;19.24;69.35;97284.69;5004618;28;20029;-77
2021/08/20 04:29:23;;;;;;;6.40;5.78;;;;;;;19.21;69.02;97284.47;5020382;28;20041;-76
2021/08/20 04:31:48;;;;;;;6.85;5.90;;;;;;;19.17;69.15;97288.78;5055569;28;20041;-77
2021/08/20 04:34:14;;;;;;;8.70;6.60;;;;;;;19.12;68.80;97289.66;5020830;28;20036;-77
2021/08/20 04:36:39;;;;;;;8.13;6.35;;;;;;;19.08;69.05;97299.25;5036987;28;20040;-77
2021/08/20 04:39:07;;;;;;;6.35;5.63;;;;;;;19.08;68.85;97300.03;5021052;28;20079;-77
2021/08/20 04:41:33;;;;;;;8.43;6.40;;;;;;;19.06;68.93;97306.69;5037167;28;20037;-77
2021/08/20 04:43:58;;;;;;;6.90;5.57;;;;;;;19.05;68.87;97299.84;5020334;28;20036;-78
2021/08/20 04:46:26;;;;;;;10.07;6.78;;;;;;;19.03;69.10;97304.66;5036687;28;20234;-77
2021/08/20 04:48:51;;;;;;;7.35;5.97;;;;;;;19.07;69.25;97301.13;5036977;28;20032;-77
2021/08/20 04:51:17;;;;;;;6.72;5.90;;;;;;;19.09;69.13;97303.47;5053065;28;20503;-77
2021/08/20 04:53:42;;;;;;;7.40;6.47;;;;;;;19.06;69.23;97298.78;5033576;28;20029;-77
2021/08/20 04:56:08;;;;;;;7.18;5.70;;;;;;;19.12;69.02;97304.72;5032414;28;20029;-77
2021/08/20 04:58:37;;;;;;;6.93;5.25;;;;;;;19.10;69.14;97310.31;5015653;28;20083;-77
2021/08/20 05:01:03;;;;;;;6.25;5.65;;;;;;;19.07;69.08;97313.53;5031862;28;20517;-77
2021/08/20 05:03:28;;;;;;;7.03;5.85;;;;;;;19.06;69.37;97318.03;5015481;28;20068;-77
2021/08/20 05:05:54;;;;;;;9.90;6.70;;;;;;;19.07;69.32;97318.81;5032746;28;20118;-77
2021/08/20 05:08:19;;;;;;;9.65;6.88;;;;;;;19.09;69.23;97324.59;5018902;28;20480;-77
2021/08/20 05:10:45;;;;;;;7.32;6.15;;;;;;;19.11;69.22;97321.63;5035052;28;20039;-77
2021/08/20 05:13:10;;;;;;;7.38;6.57;;;;;;;19.13;69.40;97327.41;5035309;28;20044;-77
2021/08/20 05:15:35;;;;;;;8.63;7.00;;;;;;;19.10;69.43;97323.50;5019423;28;20025;-77
2021/08/20 05:18:02;;;;;;;7.95;5.80;;;;;;;19.15;69.34;97327.91;5018926;28;20521;-77
2021/08/20 05:20:28;;;;;;;6.70;5.90;;;;;;;19.14;69.31;97327.13;5035017;28;20123;-77
2021/08/20 05:22:55;;;;;;;10.02;7.43;;;;;;;19.15;69.08;97327.91;5035361;28;20029;-77
2021/08/20 05:25:21;;;;;;;6.72;6.05;;;;;;;19.20;68.91;97331.19;5018933;28;20024;-77
2021/08/20 05:27:47;;;;;;;7.60;6.13;;;;;;;19.23;68.99;97333.25;5002784;28;20043;-77
2021/08/20 05:30:13;;;;;;;8.13;6.00;;;;;;;19.26;68.47;97334.50;5018288;28;20123;-77
2021/08/20 05:32:38;;;;;;;6.07;5.47;;;;;;;19.26;67.85;97339.78;5053022;28;20483;-77
2021/08/20 05:35:05;;;;;;;7.22;5.93;;;;;;;19.25;68.28;97340.88;5019990;28;20094;-77
2021/08/20 05:37:31;;;;;;;6.70;6.00;;;;;;;19.28;67.83;97340.28;5019578;28;20338;-77
2021/08/20 05:39:56;;;;;;;5.88;5.15;;;;;;;19.22;67.90;97344.88;5019245;28;20040;-77
2021/08/20 05:42:22;;;;;;;8.35;5.80;;;;;;;19.26;67.72;97342.44;5018970;28;20064;-76
2021/08/20 05:44:47;;;;;;;7.20;5.75;;;;;;;19.19;67.93;97347.34;5035444;28;20383;-77
2021/08/20 05:47:12;;;;;;;5.88;5.28;;;;;;;19.25;67.62;97346.94;5035511;28;20035;-77
2021/08/20 05:49:38;;;;;;;8.10;5.57;;;;;;;19.26;67.54;97345.06;5018488;28;20039;-77
2021/08/20 05:52:03;;;;;;;8.85;5.32;;;;;;;19.31;66.71;97342.31;5017199;28;20039;-77
2021/08/20 05:54:29;;;;;;;6.03;5.43;;;;;;;19.32;66.64;97348.41;5019281;28;20548;-77
2021/08/20 05:56:54;;;;;;;8.73;5.20;;;;;;;19.32;66.07;97353.69;5018144;28;20048;-77
2021/08/20 05:59:19;;;;;;;5.97;4.43;;;;;;;19.34;66.17;97351.53;5051015;28;20025;-77
2021/08/20 06:01:45;;;;;;;6.05;4.70;;;;;;;19.35;65.70;97353.09;5033361;28;20086;-77
2021/08/20 06:04:10;;;;;;;5.35;4.18;;;;;;;19.35;65.72;97361.03;5034231;28;20107;-77
2021/08/20 06:06:39;;;;;;;6.38;5.03;;;;;;;19.27;65.54;97357.97;5052598;28;20037;-77
2021/08/20 06:09:05;;;;;;;5.55;5.05;;;;;;;19.40;66.18;97360.91;5034534;28;20040;-77
2021/08/20 06:11:31;;;;;;;6.53;5.00;;;;;;;19.50;65.41;97358.03;5001214;28;20079;-77
2021/08/20 06:13:56;;;;;;;6.50;5.25;;;;;;;19.48;66.36;97362.06;5033220;28;20444;-77
2021/08/20 06:16:24;;;;;;;7.15;5.13;;;;;;;19.50;65.92;97360.69;5034631;28;20032;-77
2021/08/20 06:18:49;;;;;;;5.35;4.80;;;;;;;19.60;65.48;97363.09;5052440;28;20051;-77
2021/08/20 06:21:15;;;;;;;4.60;4.20;;;;;;;19.70;65.02;97371.88;5034285;28;20040;-77
2021/08/20 06:23:40;;;;;;;4.88;4.28;;;;;;;19.73;65.03;97368.63;5034531;28;20036;-77
2021/08/20 06:26:06;;;;;;;5.78;4.40;;;;;;;19.90;64.12;97366.16;5034314;28;20131;-77
2021/08/20 06:28:31;;;;;;;5.13;4.30;;;;;;;20.02;63.62;97370.91;5016618;28;20262;-77
2021/08/20 06:31:02;;;;;;;5.05;4.20;;;;;;;20.01;62.86;97364.84;5033800;28;20392;-77
2021/08/20 06:33:28;;;;;;;5.90;4.10;;;;;;;20.07;63.08;97364.72;5018386;28;20044;-77
2021/08/20 06:35:57;;;;;;;5.22;3.97;;;;;;;20.12;63.22;97362.72;5002048;28;20040;-77
2021/08/20 06:38:22;;;;;;;5.75;4.15;;;;;;;20.25;62.10;97363.72;5001514;28;20025;-77
2021/08/20 06:40:48;;;;;;;6.13;4.55;;;;;;;20.25;62.69;97369.00;5017806;28;20396;-77
2021/08/20 06:43:13;;;;;;;5.65;4.07;;;;;;;20.40;61.63;97365.97;5034924;28;20048;-77
2021/08/20 06:45:38;;;;;;;5.63;4.00;;;;;;;20.51;61.43;97371.81;5033021;28;20399;-77
2021/08/20 06:48:04;;;;;;;5.30;4.60;;;;;;;20.50;61.62;97366.81;5034556;28;20029;-77
2021/08/20 06:50:29;;;;;;;5.43;4.68;;;;;;;20.64;61.67;97364.88;5050915;28;20037;-77
2021/08/20 06:52:56;;;;;;;5.47;4.03;;;;;;;20.96;60.71;97376.22;5018765;28;20547;-77
2021/08/20 06:55:22;;;;;;;5.30;3.67;;;;;;;21.09;59.70;97364.72;5001146;28;20105;-77
2021/08/20 06:57:50;;;;;;;4.38;3.85;;;;;;;21.29;59.22;97362.59;5033358;28;20029;-77
2021/08/20 07:00:16;;;;;;;5.13;3.50;;;;;;;21.60;58.14;97359.81;5032840;28;20033;-78
2021/08/20 07:02:48;;;;;;;3.65;3.15;;;;;;;21.71;57.62;97357.63;5016481;28;20172;-77
2021/08/20 07:05:15;;;;;;;3.50;3.17;;;;;;;21.79;55.54;97356.84;5032717;28;20037;-77
2021/08/20 07:07:40;;;;;;;3.90;3.45;;;;;;;21.96;56.12;97360.59;5033483;28;20032;-77
2021/08/20 07:10:16;;;;;;;3.67;3.20;;;;;;;21.95;55.18;97364.34;5032696;28;20032;-77
2021/08/20 07:12:42;;;;;;;4.13;3.30;;;;;;;22.08;54.50;97363.38;5000131;28;20028;-77
2021/08/20 07:15:09;;;;;;;3.42;2.90;;;;;;;22.26;54.72;97372.88;5016221;28;20025;-77
2021/08/20 07:17:35;;;;;;;4.55;3.13;;;;;;;22.47;54.62;97371.44;5032395;28;20118;-77
2021/08/20 07:20:00;;;;;;;4.68;2.95;;;;;;;22.75;52.65;97363.84;5030785;28;20122;-77
2021/08/20 07:22:26;;;;;;;3.22;2.92;;;;;;;22.80;52.30;97368.97;5031462;28;20065;-76
2021/08/20 07:24:52;;;;;;;2.92;2.63;;;;;;;23.13;52.10;97373.66;5015114;28;20036;-77
2021/08/20 07:27:18;;;;;;;4.00;2.50;;;;;;;23.21;51.76;97369.44;5015381;28;20033;-77
2021/08/20 07:29:44;;;;;;;3.40;2.75;;;;;;;23.32;51.87;97373.25;5031400;28;20029;-77
2021/08/20 07:32:09;;;;;;;3.72;3.10;;;;;;;23.30;50.87;97370.13;5031177;28;20551;-77
2021/08/20 07:34:34;;;;;;;2.50;2.30;;;;;;;23.44;51.11;97369.88;5031092;28;20029;-77
2021/08/20 07:37:00;;;;;;;4.25;3.30;;;;;;;23.65;50.11;97365.34;5031808;28;20025;-77
2021/08/20 07:39:26;;;;;;;2.70;2.50;;;;;;;23.87;49.55;97366.13;5047051;28;20033;-77
2021/08/20 07:41:55;;;;;;;4.18;2.80;;;;;;;23.80;49.69;97371.16;5014261;28;20138;-77
2021/08/20 07:44:22;;;;;;;2.60;2.40;;;;;;;23.97;49.56;97364.94;5030914;28;20752;-77
2021/08/20 07:46:48;;;;;;;3.13;2.63;;;;;;;24.14;48.74;97364.00;5014354;28;20021;-77
2021/08/20 07:49:13;;;;;;;2.78;2.55;;;;;;;24.23;47.90;97364.69;5031192;28;20040;-77
2021/08/20 07:51:39;;;;;;;2.70;2.45;;;;;;;23.99;48.97;97363.53;5014132;28;20464;-76
2021/08/20 07:54:05;;;;;;;2.38;2.17;;;;;;;24.17;49.23;97363.38;5030343;28;20186;-77
2021/08/20 07:56:30;;;;;;;2.97;2.15;;;;;;;24.36;47.27;97365.50;5030083;28;20511;-77
2021/08/20 07:58:56;;;;;;;3.40;2.15;;;;;;;24.46;47.71;97370.41;5030299;28;20029;-77
2021/08/20 08:01:22;;;;;;;2.45;2.25;;;;;;;24.64;47.96;97371.00;4997491;28;20491;-77
2021/08/20 08:03:48;;;;;;;2.58;1.83;;;;;;;24.86;47.60;97367.94;5014230;28;20048;-77
2021/08/20 08:06:13;;;;;;;2.40;2.20;;;;;;;24.85;46.55;97373.59;5030499;28;20032;-77
2021/08/20 08:08:39;;;;;;;2.63;1.98;;;;;;;25.08;46.89;97378.44;5014135;28;20248;-77
2021/08/20 08:11:05;;;;;;;3.38;2.30;;;;;;;24.83;47.93;97373.13;5029863;28;20061;-77
2021/08/20 08:13:30;;;;;;;2.30;2.10;;;;;;;25.10;45.97;97377.00;5028655;28;20114;-77
2021/08/20 08:15:55;;;;;;;3.85;2.40;;;;;;;25.12;45.36;97374.78;5039386;28;20037;-77
2021/08/20 08:18:21;;;;;;;3.33;2.40;;;;;;;24.77;47.26;97369.13;5027637;28;20025;-77
2021/08/20 08:20:47;;;;;;;2.10;1.90;;;;;;;25.17;46.46;97371.91;4994480;28;20025;-77
2021/08/20 08:23:12;;;;;;;2.15;1.98;;;;;;;25.35;45.60;97377.00;4995147;28;20507;-77
2021/08/20 08:25:41;;;;;;;2.22;2.08;;;;;;;25.36;45.82;97386.53;5026414;28;20048;-77
2021/08/20 08:28:06;;;;;;;2.63;2.00;;;;;;;25.40;46.57;97385.53;5013771;28;20500;-77
2021/08/20 08:30:40;;;;;;;4.20;2.10;;;;;;;25.63;44.88;97394.94;5013439;28;20065;-77
2021/08/20 08:33:07;;;;;;;1.88;1.67;;;;;;;25.76;44.44;97391.88;4998042;28;20066;-77
2021/08/20 08:35:33;;;;;;;2.40;2.15;;;;;;;25.36;45.80;97389.22;5033959;28;20033;-77
2021/08/20 08:38:08;;;;;;;2.80;2.00;;;;;;;25.22;46.07;97392.19;5033821;28;20021;-77
2021/08/20 08:40:35;;;;;;;2.28;2.08;;;;;;;25.77;46.09;97398.00;5033589;28;20316;-77
2021/08/20 08:43:04;;;;;;;2.20;2.00;;;;;;;25.88;45.39;97395.66;5033595;28;20043;-75
2021/08/20 08:45:29;;;;;;;2.33;2.13;;;;;;;26.15;43.32;97402.88;5001020;28;20029;-76
2021/08/20 08:47:55;;;;;;;1.50;1.40;;;;;;;26.05;41.35;97403.38;5033591;28;20060;-77
2021/08/20 08:50:22;;;;;;;1.58;1.48;;;;;;;25.84;42.25;97408.88;5032759;28;20434;-77
2021/08/20 08:52:47;;;;;;;1.40;1.30;;;;;;;25.77;43.23;97398.00;5034699;28;20043;-77
2021/08/20 08:55:13;;;;;;;1.38;1.27;;;;;;;25.49;45.81;97404.06;5033276;28;20033;-77
2021/08/20 08:57:38;;;;;;;1.42;1.33;;;;;;;25.94;43.44;97402.28;5000265;28;20028;-77
2021/08/20 09:00:05;;;;;;;1.70;1.60;;;;;;;26.21;42.76;97397.31;5015621;28;20099;-77
2021/08/20 09:02:33;;;;;;;1.60;1.50;;;;;;;26.46;41.96;97393.38;5013461;28;20564;-77
2021/08/20 09:05:01;;;;;;;2.95;2.75;;;;;;;26.62;42.41;97396.09;5013504;28;20041;-77
2021/08/20 09:07:29;;;;;;;1.67;1.58;;;;;;;26.56;42.50;97397.41;5013153;28;20087;-77
2021/08/20 09:10:19;;;;;;;2.17;2.05;;;;;;;26.35;42.24;97395.75;5012912;28;20033;-77
2021/08/20 09:12:59;;;;;;;1.90;1.55;;;;;;;26.58;43.05;97397.88;5029517;28;20476;-77
2021/08/20 09:15:34;;;;;;;1.38;1.27;;;;;;;26.82;40.50;97390.81;4996790;28;20033;-75
2021/08/20 09:18:01;;;;;;;2.58;1.40;;;;;;;26.86;40.95;97400.47;4996827;28;20060;-77
2021/08/20 09:20:36;;;;;;;1.40;1.30;;;;;;;26.95;39.79;97394.94;5012781;28;20035;-77
2021/08/20 09:23:15;;;;;;;1.58;1.35;;;;;;;27.03;41.39;97385.97;4997668;28;20546;-77
2021/08/20 09:25:44;;;;;;;1.35;1.25;;;;;;;27.18;41.20;97392.41;4999320;28;20039;-77
2021/08/20 09:28:09;;;;;;;1.58;1.48;;;;;;;27.50;39.82;97396.94;5033065;28;20214;-77
2021/08/20 09:30:35;;;;;;;1.65;1.55;;;;;;;27.79;39.14;97393.69;5050098;28;20475;-77
2021/08/20 09:33:00;;;;;;;1.38;1.27;;;;;;;27.80;40.05;97392.59;5016390;28;20036;-77
2021/08/20 09:35:34;;;;;;;1.77;1.38;;;;;;;27.95;38.56;97382.16;5032642;28;20120;-77
2021/08/20 09:38:06;;;;;;;1.70;1.60;;;;;;;27.62;39.42;97386.09;5016334;28;20380;-77
2021/08/20 09:40:34;;;;;;;;;;;;;;;27.70;39.71;97395.06;5033133;28;20186;-77
2021/08/20 09:43:11;;;;;;;2.05;1.95;;;;;;;27.87;38.87;97391.94;5015837;28;20007;-75
2021/08/20 09:45:39;;;;;;;2.10;1.65;;;;;;;28.11;37.90;97385.53;4999658;28;20031;-75
2021/08/20 09:48:05;;;;;;;1.90;1.80;;;;;;;28.18;37.40;97393.69;4999268;28;20032;-75
2021/08/20 09:50:42;;;;;;;1.55;1.38;;;;;;;27.82;40.32;97397.59;5039079;28;20472;-75
2021/08/20 09:53:13;;;;;;;1.95;1.85;;;;;;;28.04;38.71;97385.41;5015439;28;20029;-75
2021/08/20 09:55:39;;;;;;;2.20;2.00;;;;;;;28.45;37.26;97393.78;4999455;28;20025;-77
2021/08/20 09:58:08;;;;;;;1.50;1.40;;;;;;;28.60;36.79;97388.69;5032523;28;20024;-77
2021/08/20 10:00:33;;;;;;;1.90;1.80;;;;;;;28.55;37.58;97389.78;5015506;28;20071;-77
2021/08/20 10:03:01;;;;;;;1.77;1.65;;;;;;;28.03;38.13;97397.25;5031656;28;20460;-77
2021/08/20 10:05:26;;;;;;;2.20;1.60;;;;;;;28.02;39.38;97391.13;5031861;28;20039;-76
2021/08/20 10:07:53;;;;;;;2.00;1.85;;;;;;;27.60;37.97;97388.34;5015658;28;20379;-75
2021/08/20 10:10:19;;;;;;;1.95;1.77;;;;;;;27.68;38.95;97387.38;5031560;28;20041;-75
2021/08/20 10:12:44;;;;;;;1.70;1.60;;;;;;;27.96;39.63;97384.50;5015374;28;20039;-75
2021/08/20 10:15:10;;;;;;;2.03;1.92;;;;;;;28.25;40.86;97381.59;5046747;28;20410;-75
2021/08/20 10:17:36;;;;;;;1.80;1.70;;;;;;;28.50;36.20;97382.78;5031710;28;20029;-75
2021/08/20 10:20:02;;;;;;;2.03;1.92;;;;;;;28.12;36.59;97384.44;5031384;28;20091;-75
2021/08/20 10:22:27;;;;;;;2.05;1.88;;;;;;;28.02;38.72;97383.09;5014943;28;20025;-77
2021/08/20 10:24:53;;;;;;;2.17;1.98;;;;;;;27.68;40.13;97382.03;5031797;28;20205;-77
2021/08/20 10:27:19;;;;;;;2.47;1.80;;;;;;;27.31;39.05;97382.41;4998571;28;20040;-77
2021/08/20 10:29:47;;;;;;;2.00;1.90;;;;;;;27.16;39.06;97388.53;4998336;28;20086;-77
2021/08/20 10:32:17;;;;;;;2.30;1.75;;;;;;;27.32;39.86;97381.28;5015264;28;20036;-77
2021/08/20 10:34:43;;;;;;;2.35;1.98;;;;;;;27.60;38.87;97389.13;5049273;28;20104;-77
2021/08/20 10:37:18;;;;;;;1.85;1.67;;;;;;;28.06;37.78;97380.47;5031520;28;20107;-77
2021/08/20 10:39:46;;;;;;;2.10;2.00;;;;;;;28.25;38.02;97382.34;5014394;28;20376;-76
2021/08/20 10:42:16;;;;;;;2.13;2.03;;;;;;;28.16;37.71;97390.59;5031580;28;20033;-77
2021/08/20 10:44:44;;;;;;;2.38;2.17;;;;;;;27.68;38.43;97382.03;5031228;28;20056;-77
2021/08/20 10:47:20;;;;;;;2.15;1.83;;;;;;;27.02;39.63;97379.06;5031387;28;20037;-75
2021/08/20 10:49:47;;;;;;;1.80;1.70;;;;;;;27.22;40.15;97390.59;5030709;28;20063;-75
2021/08/20 10:52:23;;;;;;;2.28;2.13;;;;;;;27.73;39.43;97381.75;5030911;28;20041;-75
2021/08/20 10:54:48;;;;;;;2.20;2.10;;;;;;;28.05;40.60;97384.28;5031453;28;20052;-77
2021/08/20 10:57:38;;;;;;;2.50;2.30;;;;;;;28.14;39.40;97384.06;5030956;28;20033;-77
2021/08/20 11:00:08;;;;;;;2.30;2.10;;;;;;;28.64;38.62;97379.59;5048579;28;20043;-75
2021/08/20 11:02:47;;;;;;;1.90;1.80;;;;;;;28.82;39.86;97381.78;5014282;28;20557;-75
2021/08/20 11:05:16;;;;;;;3.95;1.92;;;;;;;28.96;36.60;97381.97;5031557;28;20033;-75
2021/08/20 11:07:42;;;;;;;2.70;2.50;;;;;;;29.07;39.38;97382.16;5014424;28;20606;-75
2021/08/20 11:10:07;;;;;;;2.17;2.08;;;;;;;29.35;35.52;97381.78;5047143;28;20438;-75
2021/08/20 11:12:51;;;;;;;2.22;2.10;;;;;;;28.93;38.64;97377.34;5028877;28;20036;-75
2021/08/20 11:15:22;;;;;;;1.95;1.85;;;;;;;29.42;35.49;97376.50;5011653;28;20369;-75
2021/08/20 11:17:57;;;;;;;2.38;2.17;;;;;;;29.36;35.86;97377.97;5028882;28;20060;-75
2021/08/20 11:20:26;;;;;;;;;;;;;;;28.46;36.68;97379.25;5028750;28;20036;-75
2021/08/20 11:23:04;;;;;;;2.40;2.17;;;;;;;28.07;37.66;97387.41;5026722;28;19909;-75
2021/08/20 11:25:34;;;;;;;2.20;2.10;;;;;;;27.55;38.96;97386.72;5026653;28;20254;-75
2021/08/20 11:28:04;;;;;;;1.98;1.80;;;;;;;27.09;39.53;97381.91;5027348;28;20076;-75
2021/08/20 11:30:31;;;;;;;2.22;1.80;;;;;;;26.85;40.46;97390.13;5027046;28;20408;-75
2021/08/20 11:33:23;;;;;;;2.00;1.90;;;;;;;26.44;41.14;97386.81;5028642;28;20026;-77